createdAt,value
2016-04-22T00:00:48.069Z,6.79
2016-04-22T00:01:48.057Z,6.66
2016-04-22T00:02:48.044Z,6.73
2016-04-22T00:03:47.879Z,6.7
2016-04-22T00:04:48.027Z,6.61
2016-04-22T00:05:48.030Z,6.46
2016-04-22T00:06:48.033Z,6.51
2016-04-22T00:07:48.004Z,6.46
2016-04-22T00:08:48.022Z,6.36
2016-04-22T00:09:47.994Z,6.34
2016-04-22T00:10:47.981Z,6.34
2016-04-22T00:11:48.155Z,6.28
2016-04-22T00:12:47.986Z,6.27
2016-04-22T00:13:49.208Z,6.28
2016-04-22T00:14:47.976Z,6.21
2016-04-22T00:15:48.478Z,6.19
2016-04-22T00:16:48.169Z,6.27
2016-04-22T00:17:48.077Z,6.22
2016-04-22T00:18:47.941Z,6.27
2016-04-22T00:19:48.005Z,6.21
2016-04-22T00:20:47.930Z,6.18
2016-04-22T00:21:48.494Z,6.17
2016-04-22T00:22:49.044Z,6.09
2016-04-22T00:23:48.438Z,6.09
2016-04-22T00:24:48.316Z,6.01
2016-04-22T00:25:48.177Z,6.01
2016-04-22T00:26:47.899Z,6
2016-04-22T00:27:47.886Z,5.85
2016-04-22T00:28:47.857Z,5.9
2016-04-22T00:29:47.860Z,5.91
2016-04-22T00:30:47.848Z,5.82
2016-04-22T00:31:47.866Z,5.76
2016-04-22T00:32:47.821Z,5.78
2016-04-22T00:33:47.824Z,5.89
2016-04-22T00:34:47.842Z,5.83
2016-04-22T00:35:47.799Z,5.89
2016-04-22T00:36:47.833Z,5.9
2016-04-22T00:37:47.821Z,5.79
2016-04-22T00:38:47.808Z,5.79
2016-04-22T00:39:47.779Z,5.86
2016-04-22T00:40:47.782Z,5.82
2016-04-22T00:41:47.769Z,5.81
2016-04-22T00:42:47.771Z,5.75
2016-04-22T00:43:47.773Z,5.74
2016-04-22T00:44:47.746Z,5.76
2016-04-22T00:45:47.732Z,5.76
2016-04-22T00:46:47.579Z,5.75
2016-04-22T00:47:47.737Z,5.72
2016-04-22T00:48:47.725Z,5.54
2016-04-22T00:49:47.727Z,5.54
2016-04-22T00:50:47.699Z,5.58
2016-04-22T00:51:47.545Z,5.64
2016-04-22T00:52:47.689Z,5.54
2016-04-22T00:53:47.676Z,5.56
2016-04-22T00:54:47.663Z,5.49
2016-04-22T00:55:47.665Z,5.46
2016-04-22T00:56:47.652Z,5.42
2016-04-22T00:57:47.639Z,5.3
2016-04-22T00:58:48.642Z,5.28
2016-04-22T00:59:47.645Z,5.3
2016-04-22T01:00:47.647Z,5.25
2016-04-22T01:01:47.635Z,5.24
2016-04-22T01:02:47.605Z,5.18
2016-04-22T01:03:47.968Z,5.2
2016-04-22T01:04:47.596Z,5.15
2016-04-22T01:05:47.599Z,5.21
2016-04-22T01:06:48.476Z,5.17
2016-04-22T01:07:48.041Z,5.22
2016-04-22T01:08:47.607Z,5.21
2016-04-22T01:09:47.562Z,5.12
2016-04-22T01:10:47.893Z,5.04
2016-04-22T01:11:47.943Z,5.1
2016-04-22T01:12:47.774Z,5.1
2016-04-22T01:13:47.526Z,5.03
2016-04-22T01:14:47.513Z,5.06
2016-04-22T01:15:47.516Z,5.02
2016-04-22T01:16:47.503Z,5.02
2016-04-22T01:17:47.490Z,4.96
2016-04-22T01:18:47.493Z,5
2016-04-22T01:19:47.464Z,4.96
2016-04-22T01:20:47.467Z,4.94
2016-04-22T01:21:47.470Z,4.97
2016-04-22T01:22:47.473Z,4.88
2016-04-22T01:23:47.444Z,4.92
2016-04-22T01:24:47.462Z,4.91
2016-04-22T01:25:47.450Z,4.86
2016-04-22T01:26:47.420Z,4.89
2016-04-22T01:27:47.470Z,4.88
2016-04-22T01:28:47.426Z,4.88
2016-04-22T01:29:48.256Z,4.85
2016-04-22T01:30:48.322Z,4.89
2016-04-22T01:31:47.575Z,4.8
2016-04-22T01:32:48.358Z,4.72
2016-04-22T01:33:47.361Z,4.82
2016-04-22T01:34:47.458Z,4.77
2016-04-22T01:35:47.352Z,4.75
2016-04-22T01:36:47.354Z,4.67
2016-04-22T01:37:47.341Z,4.69
2016-04-22T01:38:48.750Z,4.66
2016-04-22T01:39:47.674Z,4.7
2016-04-22T01:40:48.536Z,4.72
2016-04-22T01:41:48.586Z,4.67
2016-04-22T01:42:48.214Z,4.86
2016-04-22T01:43:47.279Z,4.67
2016-04-22T01:44:47.266Z,4.62
2016-04-22T01:45:47.456Z,4.66
2016-04-22T01:46:47.271Z,4.67
2016-04-22T01:47:47.274Z,4.66
2016-04-22T01:48:47.262Z,4.67
2016-04-22T01:49:47.248Z,4.67
2016-04-22T01:50:47.251Z,4.65
2016-04-22T01:51:47.238Z,4.65
2016-04-22T01:52:47.225Z,4.55
2016-04-22T01:53:47.212Z,4.7
2016-04-22T01:54:47.231Z,4.59
2016-04-22T01:55:47.187Z,4.69
2016-04-22T01:56:47.189Z,4.59
2016-04-22T01:57:47.192Z,4.7
2016-04-22T01:58:47.178Z,4.66
2016-04-22T01:59:47.166Z,4.67
2016-04-22T02:00:47.137Z,4.59
2016-04-22T02:01:47.140Z,4.62
2016-04-22T02:02:47.142Z,4.65
2016-04-22T02:03:47.145Z,4.65
2016-04-22T02:04:47.133Z,4.65
2016-04-22T02:05:46.385Z,4.62
2016-04-22T02:06:47.106Z,4.65
2016-04-22T02:07:47.109Z,4.54
2016-04-22T02:08:47.081Z,4.5
2016-04-22T02:09:47.083Z,4.51
2016-04-22T02:10:47.071Z,4.48
2016-04-22T02:11:47.074Z,4.51
2016-04-22T02:12:46.326Z,4.48
2016-04-22T02:13:47.063Z,4.59
2016-04-22T02:14:47.035Z,4.52
2016-04-22T02:15:47.037Z,4.52
2016-04-22T02:16:48.133Z,4.54
2016-04-22T02:17:47.027Z,4.45
2016-04-22T02:18:47.013Z,4.45
2016-04-22T02:19:47.016Z,4.45
2016-04-22T02:21:01.973Z,4.55
2016-04-22T02:21:46.991Z,4.52
2016-04-22T02:22:46.962Z,4.48
2016-04-22T02:23:46.965Z,4.48
2016-04-22T02:24:46.951Z,4.5
2016-04-22T02:25:47.861Z,4.52
2016-04-22T02:27:01.145Z,4.45
2016-04-22T02:27:47.742Z,4.52
2016-04-22T02:28:46.931Z,4.45
2016-04-22T02:29:46.918Z,4.54
2016-04-22T02:30:46.921Z,4.45
2016-04-22T02:31:46.970Z,4.44
2016-04-22T02:32:46.911Z,4.37
2016-04-22T02:33:46.944Z,4.41
2016-04-22T02:34:46.900Z,4.4
2016-04-22T02:35:46.888Z,4.42
2016-04-22T02:36:46.875Z,4.4
2016-04-22T02:37:46.861Z,4.4
2016-04-22T02:38:46.864Z,4.33
2016-04-22T02:39:46.852Z,4.36
2016-04-22T02:40:46.838Z,4.27
2016-04-22T02:41:46.825Z,4.3
2016-04-22T02:42:46.828Z,4.33
2016-04-22T02:43:46.800Z,4.3
2016-04-22T02:44:46.802Z,4.29
2016-04-22T02:45:46.790Z,4.29
2016-04-22T02:46:46.792Z,4.24
2016-04-22T02:47:46.779Z,4.24
2016-04-22T02:48:46.766Z,4.32
2016-04-22T02:49:46.737Z,4.24
2016-04-22T02:50:46.756Z,4.24
2016-04-22T02:51:46.821Z,4.23
2016-04-22T02:52:47.152Z,4.15
2016-04-22T02:53:47.404Z,4.27
2016-04-22T02:54:46.735Z,4.15
2016-04-22T02:55:46.722Z,4.16
2016-04-22T02:56:46.710Z,4.16
2016-04-22T02:57:47.557Z,4.3
2016-04-22T02:58:48.855Z,4.29
2016-04-22T02:59:46.671Z,4.23
2016-04-22T03:00:46.642Z,4.29
2016-04-22T03:01:46.661Z,4.18
2016-04-22T03:02:47.289Z,4.23
2016-04-22T03:03:46.681Z,4.26
2016-04-22T03:04:46.981Z,4.26
2016-04-22T03:05:46.655Z,4.18
2016-04-22T03:06:46.596Z,4.2
2016-04-22T03:07:46.614Z,4.16
2016-04-22T03:08:46.601Z,4.2
2016-04-22T03:09:46.572Z,4.14
2016-04-22T03:10:46.591Z,4.24
2016-04-22T03:11:46.578Z,4.23
2016-04-22T03:12:46.566Z,4.24
2016-04-22T03:13:46.536Z,4.24
2016-04-22T03:14:46.539Z,4.18
2016-04-22T03:15:46.542Z,4.18
2016-04-22T03:16:46.513Z,4.18
2016-04-22T03:17:46.516Z,4.18
2016-04-22T03:18:46.504Z,4.18
2016-04-22T03:19:46.521Z,4.11
2016-04-22T03:20:46.477Z,4.16
2016-04-22T03:21:46.465Z,4.14
2016-04-22T03:22:46.482Z,4.05
2016-04-22T03:23:46.454Z,4.09
2016-04-22T03:24:46.457Z,4.05
2016-04-22T03:25:46.444Z,4.08
2016-04-22T03:26:46.447Z,4.11
2016-04-22T03:27:46.293Z,4.04
2016-04-22T03:28:46.421Z,4.08
2016-04-22T03:29:46.408Z,4.09
2016-04-22T03:30:46.411Z,4.08
2016-04-22T03:31:46.398Z,4.06
2016-04-22T03:32:46.384Z,4.04
2016-04-22T03:33:46.372Z,4.11
2016-04-22T03:34:46.374Z,4.08
2016-04-22T03:35:47.095Z,4.14
2016-04-22T03:36:46.380Z,4.15
2016-04-22T03:37:46.335Z,4.11
2016-04-22T03:39:46.325Z,4.08
2016-04-22T03:40:46.516Z,4.09
2016-04-22T03:41:46.519Z,4.08
2016-04-22T03:42:46.552Z,4.15
2016-04-22T03:43:46.305Z,4.14
2016-04-22T03:44:46.933Z,4.11
2016-04-22T03:45:46.372Z,4.08
2016-04-22T03:46:47.110Z,4.11
2016-04-22T03:47:46.269Z,4.11
2016-04-22T03:48:46.255Z,4.15
2016-04-22T03:49:46.618Z,4.14
2016-04-22T03:50:46.229Z,4.12
2016-04-22T03:51:46.232Z,4.11
2016-04-22T03:52:46.204Z,4.11
2016-04-22T03:53:46.207Z,4.02
2016-04-22T03:54:46.179Z,4.09
2016-04-22T03:55:46.197Z,4.05
2016-04-22T03:56:46.168Z,4.08
2016-04-22T03:57:46.187Z,4.14
2016-04-22T03:58:46.157Z,4.05
2016-04-22T03:59:46.160Z,4.11
2016-04-22T04:00:46.148Z,4.05
2016-04-22T04:01:46.134Z,4.08
2016-04-22T04:02:46.122Z,4.09
2016-04-22T04:03:46.139Z,4.11
2016-04-22T04:04:45.970Z,4.16
2016-04-22T04:05:46.114Z,4.2
2016-04-22T04:06:46.085Z,4.12
2016-04-22T04:07:46.745Z,4.2
2016-04-22T04:08:46.309Z,4.22
2016-04-22T04:09:46.062Z,4.23
2016-04-22T04:10:46.144Z,4.23
2016-04-22T04:11:46.302Z,4.27
2016-04-22T04:12:46.227Z,4.27
2016-04-22T04:13:46.041Z,4.32
2016-04-22T04:14:46.013Z,4.36
2016-04-22T04:15:46.016Z,4.4
2016-04-22T04:16:48.034Z,4.48
2016-04-22T04:17:45.990Z,4.52
2016-04-22T04:18:46.508Z,4.65
2016-04-22T04:19:46.182Z,4.72
2016-04-22T04:20:45.966Z,4.66
2016-04-22T04:21:46.188Z,4.86
2016-04-22T04:22:45.986Z,4.92
2016-04-22T04:23:45.996Z,5.04
2016-04-22T04:24:45.883Z,5.2
2016-04-22T04:25:46.080Z,5.28
2016-04-22T04:26:46.091Z,5.49
2016-04-22T04:27:46.122Z,5.57
2016-04-22T04:28:46.139Z,5.74
2016-04-22T04:29:46.141Z,5.85
2016-04-22T04:30:46.126Z,5.93
2016-04-22T04:31:46.143Z,6.08
2016-04-22T04:32:46.156Z,6.19
2016-04-22T04:33:46.133Z,6.38
2016-04-22T04:34:46.156Z,6.46
2016-04-22T04:35:46.132Z,6.74
2016-04-22T04:36:46.157Z,6.81
2016-04-22T04:37:46.146Z,7.12
2016-04-22T04:38:46.136Z,7.23
2016-04-22T04:39:46.125Z,7.25
2016-04-22T04:40:46.129Z,7.4
2016-04-22T04:41:46.134Z,7.57
2016-04-22T04:42:46.122Z,7.74
2016-04-22T04:43:46.110Z,8.01
2016-04-22T04:44:46.097Z,8.18
2016-04-22T04:45:46.100Z,8.36
2016-04-22T04:46:46.119Z,8.68
2016-04-22T04:47:46.090Z,8.83
2016-04-22T04:48:46.079Z,8.96
2016-04-22T04:49:46.082Z,9.18
2016-04-22T04:50:46.085Z,9.4
2016-04-22T04:51:46.072Z,9.61
2016-04-22T04:52:46.075Z,9.81
2016-04-22T04:53:46.063Z,9.94
2016-04-22T04:54:46.315Z,10.23
2016-04-22T04:55:46.333Z,10.33
2016-04-22T04:56:46.054Z,10.47
2016-04-22T04:57:46.698Z,10.61
2016-04-22T04:58:45.919Z,10.82
2016-04-22T04:59:46.046Z,10.92
2016-04-22T05:00:46.034Z,10.94
2016-04-22T05:01:46.037Z,11.03
2016-04-22T05:02:46.054Z,10.96
2016-04-22T05:03:47.745Z,10.97
2016-04-22T05:04:46.248Z,11.03
2016-04-22T05:05:46.032Z,10.92
2016-04-22T05:06:46.035Z,10.97
2016-04-22T05:07:46.021Z,10.97
2016-04-22T05:08:46.228Z,11.04
2016-04-22T05:09:46.012Z,11.09
2016-04-22T05:10:46.030Z,11.07
2016-04-22T05:11:46.018Z,11.22
2016-04-22T05:12:46.035Z,11.22
2016-04-22T05:13:46.070Z,11.25
2016-04-22T05:14:46.026Z,11.29
2016-04-22T05:15:46.013Z,11.55
2016-04-22T05:16:46.015Z,11.64
2016-04-22T05:17:46.018Z,11.88
2016-04-22T05:18:46.006Z,11.96
2016-04-22T05:19:46.009Z,12.14
2016-04-22T05:20:46.011Z,12.46
2016-04-22T05:21:46.014Z,12.56
2016-04-22T05:22:46.017Z,12.75
2016-04-22T05:23:46.034Z,13.03
2016-04-22T05:24:46.037Z,13.14
2016-04-22T05:26:46.792Z,13.6
2016-04-22T05:27:47.014Z,13.88
2016-04-22T05:28:46.064Z,14.14
2016-04-22T05:29:46.347Z,14.2
2016-04-22T05:30:46.288Z,14.51
2016-04-22T05:31:46.150Z,14.72
2016-04-22T05:32:46.011Z,15.01
2016-04-22T05:33:46.014Z,15.19
2016-04-22T05:34:46.002Z,15.31
2016-04-22T05:35:46.785Z,15.54
2016-04-22T05:36:46.804Z,15.59
2016-04-22T05:37:46.041Z,15.72
2016-04-22T05:38:46.028Z,15.53
2016-04-22T05:39:46.484Z,15.35
2016-04-22T05:40:46.626Z,15.2
2016-04-22T05:41:46.458Z,15.14
2016-04-22T05:42:46.335Z,15.25
2016-04-22T05:43:46.073Z,15.36
2016-04-22T05:44:46.044Z,15.36
2016-04-22T05:45:46.046Z,15.35
2016-04-22T05:46:46.034Z,15.36
2016-04-22T05:47:46.052Z,15.49
2016-04-22T05:48:46.054Z,15.38
2016-04-22T05:49:46.073Z,15.09
2016-04-22T05:50:46.044Z,15.07
2016-04-22T05:51:46.062Z,15.16
2016-04-22T05:52:46.065Z,15.1
2016-04-22T05:53:46.067Z,15.02
2016-04-22T05:54:46.070Z,14.88
2016-04-22T05:55:46.073Z,14.83
2016-04-22T05:56:46.076Z,14.84
2016-04-22T05:57:46.078Z,14.86
2016-04-22T05:58:46.114Z,15.03
2016-04-22T05:59:46.084Z,15.27
2016-04-22T06:00:46.087Z,15.5
2016-04-22T06:01:46.089Z,15.51
2016-04-22T06:02:46.124Z,15.44
2016-04-22T06:03:46.095Z,15.29
2016-04-22T06:04:46.130Z,15.31
2016-04-22T06:05:46.116Z,15.41
2016-04-22T06:06:46.119Z,15.47
2016-04-22T06:07:46.122Z,15.28
2016-04-22T06:08:46.156Z,15.07
2016-04-22T06:09:46.142Z,14.89
2016-04-22T06:10:46.145Z,14.65
2016-04-22T06:11:46.132Z,14.51
2016-04-22T06:12:46.135Z,14.61
2016-04-22T06:14:00.324Z,14.68
2016-04-22T06:14:46.703Z,14.7
2016-04-22T06:15:46.142Z,14.68
2016-04-22T06:16:46.411Z,14.7
2016-04-22T06:17:47.289Z,14.5
2016-04-22T06:18:46.760Z,14.27
2016-04-22T06:19:46.153Z,14.1
2016-04-22T06:20:46.265Z,13.81
2016-04-22T06:21:46.175Z,13.67
2016-04-22T06:22:47.958Z,13.6
2016-04-22T06:23:46.164Z,13.64
2016-04-22T06:24:46.604Z,13.46
2016-04-22T06:25:46.389Z,13.29
2016-04-22T06:26:46.173Z,13.15
2016-04-22T06:27:46.487Z,13.1
2016-04-22T06:28:46.194Z,12.82
2016-04-22T06:29:46.242Z,12.74
2016-04-22T06:30:46.168Z,12.68
2016-04-22T06:31:46.170Z,12.45
2016-04-22T06:32:46.173Z,12.27
2016-04-22T06:33:46.176Z,12.13
2016-04-22T06:34:46.178Z,11.95
2016-04-22T06:35:46.181Z,11.76
2016-04-22T06:36:46.184Z,11.73
2016-04-22T06:37:46.186Z,11.82
2016-04-22T06:38:46.189Z,11.86
2016-04-22T06:39:46.238Z,12.04
2016-04-22T06:40:46.179Z,12.12
2016-04-22T06:41:46.182Z,12.2
2016-04-22T06:42:46.184Z,12.2
2016-04-22T06:43:46.187Z,12.28
2016-04-22T06:44:46.455Z,12.35
2016-04-22T06:45:46.177Z,12.56
2016-04-22T06:46:48.054Z,12.79
2016-04-22T06:47:46.370Z,12.96
2016-04-22T06:48:46.966Z,13.04
2016-04-22T06:49:46.688Z,13
2016-04-22T06:50:46.159Z,13.12
2016-04-22T06:51:46.521Z,12.97
2016-04-22T06:52:46.179Z,12.75
2016-04-22T06:53:46.183Z,12.52
2016-04-22T06:54:46.184Z,12.31
2016-04-22T06:55:46.797Z,12.1
2016-04-22T06:56:46.769Z,12.02
2016-04-22T06:57:46.178Z,12.14
2016-04-22T06:58:47.165Z,12.28
2016-04-22T06:59:46.184Z,12.45
2016-04-22T07:00:46.186Z,12.75
2016-04-22T07:01:46.453Z,13.03
2016-04-22T07:02:46.175Z,13.12
2016-04-22T07:03:46.178Z,13.2
2016-04-22T07:04:46.181Z,13.17
2016-04-22T07:05:48.058Z,13
2016-04-22T07:06:46.546Z,12.74
2016-04-22T07:07:46.174Z,12.57
2016-04-22T07:08:46.191Z,12.46
2016-04-22T07:09:46.194Z,12.29
2016-04-22T07:10:46.182Z,12.16
2016-04-22T07:11:46.200Z,12.02
2016-04-22T07:12:46.172Z,12.12
2016-04-22T07:13:46.190Z,12.28
2016-04-22T07:14:46.177Z,12.67
2016-04-22T07:15:46.195Z,12.96
2016-04-22T07:16:46.026Z,13.17
2016-04-22T07:17:46.185Z,13.3
2016-04-22T07:18:46.187Z,13.66
2016-04-22T07:19:46.190Z,14.03
2016-04-22T07:20:46.193Z,14.54
2016-04-22T07:21:46.195Z,14.92
2016-04-22T07:22:46.214Z,15.28
2016-04-22T07:23:46.201Z,15.54
2016-04-22T07:24:46.187Z,15.6
2016-04-22T07:25:46.222Z,15.68
2016-04-22T07:26:46.193Z,15.65
2016-04-22T07:27:46.195Z,15.51
2016-04-22T07:28:46.214Z,15.53
2016-04-22T07:29:46.233Z,15.41
2016-04-22T07:30:46.204Z,15.31
2016-04-22T07:32:46.334Z,15.14
2016-04-22T07:33:46.227Z,15.29
2016-04-22T07:35:00.622Z,15.56
2016-04-22T07:35:46.233Z,15.75
2016-04-22T07:36:46.252Z,16.07
2016-04-22T07:37:46.239Z,16.38
2016-04-22T07:38:46.272Z,16.73
2016-04-22T07:39:46.275Z,17.15
2016-04-22T07:40:46.294Z,17.49
2016-04-22T07:41:47.530Z,17.74
2016-04-22T07:42:48.283Z,18.14
2016-04-22T07:43:46.286Z,18.36
2016-04-22T07:44:46.319Z,18.69
2016-04-22T07:45:46.666Z,19.11
2016-04-22T07:46:46.888Z,19.19
2016-04-22T07:47:46.687Z,19
2016-04-22T07:48:46.674Z,18.88
2016-04-22T07:49:46.380Z,18.91
2016-04-22T07:50:46.382Z,19.32
2016-04-22T07:51:46.385Z,19.61
2016-04-22T07:52:46.404Z,19.77
2016-04-22T07:53:46.406Z,19.65
2016-04-22T07:54:46.425Z,19.14
2016-04-22T07:55:46.428Z,18.94
2016-04-22T07:56:46.306Z,19.19
2016-04-22T07:57:46.449Z,19.56
2016-04-22T07:58:46.483Z,19.95
2016-04-22T07:59:46.485Z,20.29
2016-04-22T08:00:46.520Z,20.32
2016-04-22T08:01:46.522Z,20.32
2016-04-22T08:02:46.539Z,20.28
2016-04-22T08:03:47.356Z,20.39
2016-04-22T08:04:48.343Z,20.74
2016-04-22T08:05:46.844Z,21.04
2016-04-22T08:06:47.676Z,21.16
2016-04-22T08:07:47.475Z,21.4
2016-04-22T08:08:46.713Z,21.52
2016-04-22T08:09:46.653Z,21.77
2016-04-22T08:10:46.655Z,21.99
2016-04-22T08:11:46.799Z,22.2
2016-04-22T08:12:46.692Z,22.25
2016-04-22T08:13:49.382Z,22.49
2016-04-22T08:14:46.729Z,22.54
2016-04-22T08:15:46.732Z,22.61
2016-04-22T08:16:47.405Z,22.45
2016-04-22T08:17:46.768Z,22.25
2016-04-22T08:18:47.380Z,22.1
2016-04-22T08:19:46.789Z,21.88
2016-04-22T08:20:46.807Z,21.64
2016-04-22T08:21:46.826Z,21.19
2016-04-22T08:22:46.829Z,20.79
2016-04-22T08:23:46.862Z,20.5
2016-04-22T08:24:46.912Z,20.21
2016-04-22T08:25:46.899Z,19.71
2016-04-22T08:26:46.886Z,18.98
2016-04-22T08:27:46.904Z,18.44
2016-04-22T08:28:46.923Z,17.99
2016-04-22T08:29:46.925Z,17.77
2016-04-22T08:30:46.943Z,17.63
2016-04-22T08:31:46.962Z,17.62
2016-04-22T08:32:46.980Z,17.51
2016-04-22T08:33:46.983Z,17.08
2016-04-22T08:34:47.001Z,16.83
2016-04-22T08:35:47.003Z,16.73
2016-04-22T08:36:47.023Z,16.76
2016-04-22T08:37:47.009Z,16.71
2016-04-22T08:38:47.027Z,16.68
2016-04-22T08:39:47.030Z,16.6
2016-04-22T08:40:47.033Z,16.45
2016-04-22T08:41:47.067Z,16.27
2016-04-22T08:42:47.070Z,16.09
2016-04-22T08:43:47.057Z,16.09
2016-04-22T08:44:47.091Z,16
2016-04-22T08:45:47.094Z,16.02
2016-04-22T08:46:47.096Z,15.97
2016-04-22T08:47:47.114Z,15.97
2016-04-22T08:48:47.117Z,15.84
2016-04-22T08:49:47.104Z,15.8
2016-04-22T08:51:47.609Z,14.81
2016-04-22T08:52:47.628Z,14.25
2016-04-22T08:53:47.130Z,14.1
2016-04-22T08:54:46.977Z,13.89
2016-04-22T08:55:47.136Z,13.87
2016-04-22T08:56:47.123Z,13.88
2016-04-22T08:57:47.140Z,13.88
2016-04-22T08:58:47.128Z,13.89
2016-04-22T08:59:47.179Z,13.96
2016-04-22T09:00:47.384Z,14.04
2016-04-22T09:01:47.949Z,14
2016-04-22T09:02:47.639Z,14.07
2016-04-22T09:03:47.157Z,14.09
2016-04-22T09:04:47.645Z,14.12
2016-04-22T09:05:47.350Z,14.14
2016-04-22T09:06:47.150Z,14.07
2016-04-22T09:07:47.153Z,14.12
2016-04-22T09:08:47.125Z,14.03
2016-04-22T09:09:47.158Z,13.87
2016-04-22T09:10:47.145Z,13.78
2016-04-22T09:11:47.147Z,13.7
2016-04-22T09:12:47.135Z,13.63
2016-04-22T09:13:47.152Z,13.41
2016-04-22T09:14:47.155Z,13.42
2016-04-22T09:15:47.159Z,13.46
2016-04-22T09:16:47.161Z,13.64
2016-04-22T09:17:47.149Z,13.77
2016-04-22T09:18:47.151Z,13.88
2016-04-22T09:19:47.154Z,13.96
2016-04-22T09:20:47.157Z,14.14
2016-04-22T09:21:47.159Z,14.27
2016-04-22T09:22:47.943Z,14.32
2016-04-22T09:23:47.968Z,14.04
2016-04-22T09:24:47.158Z,13.88
2016-04-22T09:25:47.145Z,13.62
2016-04-22T09:26:47.164Z,13.51
2016-04-22T09:27:47.947Z,13.41
2016-04-22T09:28:47.467Z,13.44
2016-04-22T09:29:47.203Z,13.49
2016-04-22T09:30:47.299Z,13.49
2016-04-22T09:31:47.147Z,13.64
2016-04-22T09:32:49.008Z,13.84
2016-04-22T09:33:48.588Z,14.06
2016-04-22T09:34:47.591Z,14.28
2016-04-22T09:35:48.298Z,14.35
2016-04-22T09:36:47.160Z,14.52
2016-04-22T09:37:47.164Z,14.51
2016-04-22T09:38:47.166Z,14.57
2016-04-22T09:39:47.153Z,14.58
2016-04-22T09:40:47.171Z,14.54
2016-04-22T09:41:47.158Z,14.52
2016-04-22T09:42:47.161Z,14.37
2016-04-22T09:43:47.163Z,14.36
2016-04-22T09:44:47.182Z,14.42
2016-04-22T09:45:47.153Z,14.42
2016-04-22T09:46:47.156Z,14.46
2016-04-22T09:47:47.159Z,14.45
2016-04-22T09:48:47.161Z,14.39
2016-04-22T09:49:47.164Z,14.36
2016-04-22T09:50:47.166Z,14.24
2016-04-22T09:51:47.169Z,14.36
2016-04-22T09:52:47.156Z,14.27
2016-04-22T09:53:47.143Z,14.22
2016-04-22T09:54:47.146Z,14.37
2016-04-22T09:55:47.165Z,14.28
2016-04-22T09:56:47.152Z,14.17
2016-04-22T09:57:47.170Z,14.07
2016-04-22T09:58:47.173Z,13.96
2016-04-22T09:59:47.034Z,13.95
2016-04-22T10:00:47.193Z,13.85
2016-04-22T10:01:47.181Z,13.89
2016-04-22T10:02:47.167Z,14.02
2016-04-22T10:03:47.155Z,14
2016-04-22T10:04:47.172Z,14.14
2016-04-22T10:05:47.160Z,14.06
2016-04-22T10:06:47.162Z,14.07
2016-04-22T10:07:47.165Z,14.09
2016-04-22T10:13:44.118Z,14.12
2016-04-22T10:14:43.433Z,14.06
2016-04-22T10:15:43.343Z,13.85
2016-04-22T10:16:43.361Z,13.77
2016-04-22T10:17:43.395Z,13.75
2016-04-22T10:18:43.366Z,13.81
2016-04-22T10:19:43.588Z,13.92
2016-04-22T10:20:43.591Z,13.89
2016-04-22T10:21:43.390Z,13.97
2016-04-22T10:22:44.112Z,13.97
2016-04-22T10:23:43.379Z,14.02
2016-04-22T10:24:43.398Z,13.97
2016-04-22T10:25:43.370Z,14
2016-04-22T10:26:43.372Z,13.87
2016-04-22T10:27:43.359Z,13.88
2016-04-22T10:28:43.362Z,13.92
2016-04-22T10:29:43.365Z,13.88
2016-04-22T10:30:43.351Z,13.84
2016-04-22T10:31:43.370Z,13.89
2016-04-22T10:32:43.357Z,13.88
2016-04-22T10:33:43.376Z,13.85
2016-04-22T10:34:43.363Z,13.78
2016-04-22T10:35:43.381Z,13.77
2016-04-22T10:36:43.383Z,13.75
2016-04-22T10:37:43.386Z,13.77
2016-04-22T10:38:42.639Z,13.87
2016-04-22T10:39:43.361Z,13.88
2016-04-22T10:40:43.363Z,13.73
2016-04-22T10:42:44.181Z,13.64
2016-04-22T10:43:45.075Z,13.66
2016-04-22T10:44:43.233Z,13.67
2016-04-22T10:45:43.346Z,13.75
2016-04-22T10:46:43.363Z,13.85
2016-04-22T10:47:43.757Z,13.99
2016-04-22T10:48:43.369Z,14.1
2016-04-22T10:49:43.356Z,14.17
2016-04-22T10:51:44.157Z,14.33
2016-04-22T10:52:44.910Z,14.36
2016-04-22T10:53:43.960Z,14.57
2016-04-22T10:54:44.260Z,14.51
2016-04-22T10:55:43.387Z,14.62
2016-04-22T10:56:43.515Z,14.58
2016-04-22T10:57:43.534Z,14.47
2016-04-22T10:58:43.364Z,14.45
2016-04-22T10:59:43.273Z,14.45
2016-04-22T11:00:43.354Z,14.5
2016-04-22T11:01:42.639Z,14.35
2016-04-22T11:02:43.359Z,14.32
2016-04-22T11:03:43.362Z,14.17
2016-04-22T11:04:43.364Z,14.2
2016-04-22T11:05:43.353Z,14.09
2016-04-22T11:06:43.340Z,14
2016-04-22T11:07:43.358Z,13.81
2016-04-22T11:08:43.344Z,13.88
2016-04-22T11:09:43.363Z,13.87
2016-04-22T11:10:43.350Z,13.87
2016-04-22T11:11:43.196Z,13.85
2016-04-22T11:12:43.355Z,13.84
2016-04-22T11:13:43.342Z,13.95
2016-04-22T11:14:43.361Z,13.87
2016-04-22T11:15:43.347Z,13.91
2016-04-22T11:16:43.350Z,13.91
2016-04-22T11:17:43.352Z,13.84
2016-04-22T11:18:43.355Z,13.7
2016-04-22T11:19:43.358Z,13.64
2016-04-22T11:20:43.361Z,13.52
2016-04-22T11:21:43.247Z,13.55
2016-04-22T11:22:43.076Z,13.59
2016-04-22T11:23:43.361Z,13.57
2016-04-22T11:24:43.332Z,13.49
2016-04-22T11:25:43.350Z,13.52
2016-04-22T11:26:43.337Z,13.36
2016-04-22T11:27:43.340Z,13.44
2016-04-22T11:28:43.484Z,13.39
2016-04-22T11:29:44.392Z,13.42
2016-04-22T11:30:43.333Z,13.41
2016-04-22T11:31:43.320Z,13.39
2016-04-22T11:32:43.323Z,13.39
2016-04-22T11:33:43.575Z,13.38
2016-04-22T11:34:43.343Z,13.41
2016-04-22T11:35:43.315Z,13.44
2016-04-22T11:36:43.333Z,13.41
2016-04-22T11:37:43.319Z,13.48
2016-04-22T11:38:43.666Z,13.42
2016-04-22T11:39:43.325Z,13.44
2016-04-22T11:40:43.344Z,13.44
2016-04-22T11:41:43.518Z,13.39
2016-04-22T11:42:43.912Z,13.39
2016-04-22T11:43:43.336Z,13.44
2016-04-22T11:44:43.449Z,13.39
2016-04-22T11:45:43.326Z,13.32
2016-04-22T11:46:43.328Z,13.32
2016-04-22T11:47:43.315Z,13.28
2016-04-22T11:48:43.318Z,13.22
2016-04-22T11:49:43.321Z,13.05
2016-04-22T11:50:43.339Z,12.89
2016-04-22T11:51:43.311Z,13
2016-04-22T11:52:43.314Z,12.85
2016-04-22T11:53:43.317Z,12.92
2016-04-22T11:54:43.287Z,13
2016-04-22T11:55:43.306Z,12.95
2016-04-22T11:56:43.292Z,13.15
2016-04-22T11:57:43.296Z,13.14
2016-04-22T11:58:43.298Z,13.2
2016-04-22T11:59:43.286Z,13.11
2016-04-22T12:00:45.257Z,13.12
2016-04-22T12:01:43.291Z,13.14
2016-04-22T12:02:43.809Z,13.11
2016-04-22T12:03:43.687Z,13.19
2016-04-22T12:04:43.283Z,13.11
2016-04-22T12:05:43.927Z,13.11
2016-04-22T12:06:43.273Z,13
2016-04-22T12:07:43.291Z,13.01
2016-04-22T12:08:43.388Z,13
2016-04-22T12:09:44.750Z,12.87
2016-04-22T12:10:44.377Z,13.01
2016-04-22T12:11:43.661Z,12.87
2016-04-22T12:12:43.335Z,12.97
2016-04-22T12:13:43.291Z,13.04
2016-04-22T12:14:43.279Z,13.03
2016-04-22T12:15:43.844Z,13.07
2016-04-22T12:16:43.269Z,13.15
2016-04-22T12:17:43.288Z,13.17
2016-04-22T12:18:43.321Z,13.15
2016-04-22T12:19:43.888Z,13.28
2016-04-22T12:20:43.266Z,13.19
2016-04-22T12:21:43.144Z,13.19
2016-04-22T12:22:43.256Z,13.28
2016-04-22T12:23:43.289Z,13.26
2016-04-22T12:24:43.261Z,13.22
2016-04-22T12:25:43.279Z,13.15
2016-04-22T12:26:43.266Z,13.19
2016-04-22T12:27:43.253Z,13.22
2016-04-22T12:28:43.241Z,13.25
2016-04-22T12:29:43.228Z,13.15
2016-04-22T12:30:43.246Z,13.15
2016-04-22T12:31:43.249Z,13.12
2016-04-22T12:32:43.266Z,13.03
2016-04-22T12:33:43.254Z,12.89
2016-04-22T12:34:43.241Z,12.96
2016-04-22T12:35:43.228Z,12.93
2016-04-22T12:36:43.247Z,12.92
2016-04-22T12:37:43.249Z,13.07
2016-04-22T12:38:43.252Z,13.05
2016-04-22T12:39:43.771Z,13
2016-04-22T12:40:43.226Z,13.14
2016-04-22T12:41:43.229Z,13.2
2016-04-22T12:42:43.215Z,13.26
2016-04-22T12:43:43.234Z,13.23
2016-04-22T12:44:43.221Z,13.25
2016-04-22T12:45:43.223Z,13.19
2016-04-22T12:46:43.211Z,13.17
2016-04-22T12:47:43.228Z,13.14
2016-04-22T12:48:44.278Z,13.17
2016-04-22T12:49:43.234Z,13.1
2016-04-22T12:50:43.222Z,12.96
2016-04-22T12:51:43.849Z,13
2016-04-22T12:52:43.228Z,13.01
2016-04-22T12:53:43.198Z,13.01
2016-04-22T12:54:43.216Z,13.01
2016-04-22T12:55:43.219Z,12.97
2016-04-22T12:57:43.209Z,12.97
2016-04-22T12:58:43.197Z,13.07
2016-04-22T12:59:57.309Z,13.05
2016-04-22T13:00:43.186Z,13.1
2016-04-22T13:01:43.204Z,13.19
2016-04-22T13:02:43.191Z,13.23
2016-04-22T13:03:43.210Z,13.17
2016-04-22T13:04:43.197Z,13.3
2016-04-22T13:05:43.204Z,13.3
2016-04-22T13:06:43.191Z,13.39
2016-04-22T13:07:43.179Z,13.41
2016-04-22T13:08:43.196Z,13.42
2016-04-22T13:09:43.027Z,13.44
2016-04-22T13:10:43.187Z,13.55
2016-04-22T13:11:43.221Z,13.55
2016-04-22T13:12:43.176Z,13.6
2016-04-22T13:13:43.179Z,13.63
2016-04-22T13:14:43.166Z,13.67
2016-04-22T13:15:43.185Z,13.77
2016-04-22T13:16:43.187Z,13.71
2016-04-22T13:17:43.194Z,13.95